Skip to main content

NOAA/GLERL Met Station at Chicago, IL

Previous 3 Hours (2 minute increments)
See also Previous 5 Days (top of hour)
Jump down to Data
Switch to [English][Metric]
Zoom: Click and drag, Pan: shift-click and drag, Unzoom: double-click, Unzoom All




See also 1-day windrose plot


NOAA/GLERL Met Station at Chicago, IL

Previous 3 Hours (2 minute increments)
See also Previous 5 Days (top of hour only)
Jump up to Graphs
Switch to [English][Metric]
                  Wind  Wind  Wind   Air   Dew   Rel
                   Spd   Gst   Dir  Temp    Pt   Hum
YYYY-MM-DD   CST   kts   kts   deg     F     F     %
2019-12-06 00:50  19.8  22.9   262  47.1  39.2  73.8
2019-12-06 00:48  20.6  25.1   260  47.5  39.4  73.2
2019-12-06 00:46  20.8  23.5   259  47.5  39.2  72.8
2019-12-06 00:44  19.4  21.4   262  47.8  39.3  72.0
2019-12-06 00:42  19.6  27.8   255  48.0  39.2  71.2
2019-12-06 00:40  17.5  20.6   255  47.5  39.3  72.9
2019-12-06 00:38  15.7  18.3   250  47.8  39.3  72.0
2019-12-06 00:36  15.4  19.1   246  47.8  39.2  71.8
2019-12-06 00:34  16.3  18.3   246  47.7  39.2  72.2
2019-12-06 00:32  16.1  18.3   245  47.8  39.3  71.9
2019-12-06 00:30  17.3  20.2   243  48.0  39.1  70.9
2019-12-06 00:28  15.9  19.1   243  48.0  39.3  71.4
2019-12-06 00:26  16.9  22.6   245  48.0  39.2  71.2
2019-12-06 00:24  15.7  18.5   246  48.0  39.1  71.0
2019-12-06 00:22  17.1  18.7   242  47.8  39.2  71.6
2019-12-06 00:20  15.9  17.5   245  48.0  39.1  71.0
2019-12-06 00:18  16.7  19.6   244  48.4  39.1  70.1
2019-12-06 00:16  15.9  20.6   242  48.4  39.0  69.7
2019-12-06 00:14  14.8  21.2   248  47.8  39.1  71.3
2019-12-06 00:12  15.0  18.1   245  47.8  39.1  71.5
2019-12-06 00:10  16.1  21.4   245  48.7  39.0  68.8
2019-12-06 00:08  19.2  24.7   248  48.4  39.0  69.8
2019-12-06 00:06  17.5  21.2   243  48.4  39.1  70.1
2019-12-06 00:04  17.1  19.1   243  48.6  39.1  69.6
2019-12-06 00:02  17.9  24.9   241  48.7  39.0  68.7
2019-12-06 00:00  17.5  19.6   243  48.4  39.0  69.8
2019-12-05 23:58  17.5  20.0   237  48.6  39.1  69.4
2019-12-05 23:56  16.3  19.1   243  48.4  39.2  70.3
2019-12-05 23:54  18.5  23.7   236  48.7  39.1  69.0
2019-12-05 23:52  17.5  19.8   242  48.7  39.2  69.2
2019-12-05 23:50  16.5  21.2   235  48.7  39.2  69.2
2019-12-05 23:48  15.2  19.2   240  48.9  39.2  68.7
2019-12-05 23:46  16.3  19.4   235  48.4  39.3  70.4
2019-12-05 23:44  17.3  21.2   232  48.9  39.1  68.6
2019-12-05 23:42  19.2  22.4   229  48.2  39.2  70.7
2019-12-05 23:40  18.3  23.7   232  48.2  39.2  70.7
2019-12-05 23:38  16.5  18.7   224  46.9  39.3  74.5
2019-12-05 23:36  16.9  18.7   220  47.5  39.2  72.8
2019-12-05 23:34  18.9  23.3   218  47.5  39.1  72.5
2019-12-05 23:32  18.3  21.2   218  47.1  39.3  73.9
2019-12-05 23:30  19.2  20.8   217  47.3  39.2  73.1
2019-12-05 23:28  19.4  21.8   212  47.3  39.2  73.3
2019-12-05 23:26  19.8  22.2   212  47.1  39.3  74.0
2019-12-05 23:24  19.4  21.6   214  47.3  39.2  73.3
2019-12-05 23:22  19.1  22.7   216  47.3  39.2  73.1
2019-12-05 23:20  18.9  21.0   214  46.9  39.2  74.3
2019-12-05 23:18  19.1  20.8   214  47.3  39.2  73.2
2019-12-05 23:16  20.0  22.2   214  47.3  39.1  73.0
2019-12-05 23:14  19.2  21.4   213  47.1  39.2  73.8
2019-12-05 23:12  20.2  21.8   213  47.5  39.2  72.8
2019-12-05 23:10  20.2  22.2   212  47.5  39.3  72.9
2019-12-05 23:08  19.4  20.8   213  47.1  39.2  73.6
2019-12-05 23:06  19.2  21.6   214  47.3  39.2  73.3
2019-12-05 23:04  19.2  20.8   211  46.9  39.2  74.3
2019-12-05 23:02  20.4  22.4   213  46.9  39.2  74.1
2019-12-05 23:00  20.2  22.2   212  46.8  39.2  74.7
2019-12-05 22:58  19.8  21.6   211  46.6  39.1  75.0
2019-12-05 22:56  19.1  21.4   209  46.6  39.3  75.5
2019-12-05 22:54  19.8  22.2   209  46.8  39.2  74.7
2019-12-05 22:52  20.2  22.0   208  46.8  39.1  74.5
2019-12-05 22:50  20.6  23.1   208  46.9  39.3  74.4
2019-12-05 22:48  21.0  24.1   208  46.9  39.3  74.5
2019-12-05 22:46  20.2  22.6   210  46.9  39.2  74.3
2019-12-05 22:44  20.0  23.7   211  47.1  39.3  74.0
2019-12-05 22:42  19.8  23.1   209  46.8  39.3  75.1
2019-12-05 22:40  19.4  21.8   208  46.8  39.2  74.7
2019-12-05 22:38  18.7  20.4   209  46.9  39.4  74.7
2019-12-05 22:36  19.2  20.8   210  47.3  39.3  73.4
2019-12-05 22:34  18.5  21.0   211  47.1  39.2  73.8
2019-12-05 22:32  18.5  20.4   211  47.3  39.3  73.5
2019-12-05 22:30  17.7  20.2   212  47.5  39.3  72.9
2019-12-05 22:28  18.9  21.2   211  47.3  39.3  73.5
2019-12-05 22:26  18.5  22.4   210  47.7  39.3  72.6
2019-12-05 22:24  19.4  21.8   211  47.7  39.4  72.8
2019-12-05 22:22  18.7  22.2   213  47.7  39.3  72.6
2019-12-05 22:20  18.5  21.2   212  47.7  39.3  72.4
2019-12-05 22:18  19.4  22.7   211  48.0  39.4  71.8
2019-12-05 22:16  18.9  20.8   212  47.7  39.4  72.8
2019-12-05 22:14  17.9  21.0   208  47.5  39.3  73.1
2019-12-05 22:12  17.1  20.6   206  46.9  39.3  74.4
2019-12-05 22:10  14.6  17.1   205  46.9  39.3  74.4
2019-12-05 22:08  16.1  19.6   208  46.9  39.2  74.2
2019-12-05 22:06  12.4  14.0   210  46.6  39.2  75.1
2019-12-05 22:04  11.9  13.6   207  46.4  39.2  75.8
2019-12-05 22:02  10.5  11.1   205  46.2  39.2  76.3
2019-12-05 22:00  11.3  11.9   206  46.0  39.0  76.3
2019-12-05 21:58  11.3  12.1   207  45.7  39.1  77.4
2019-12-05 21:56  10.9  12.2   206  45.3  39.2  78.9
2019-12-05 21:54  11.1  12.6   205  45.1  39.2  79.6
2019-12-05 21:52  11.7  13.0   200  45.1  39.2  79.5
2019-12-05 21:50  12.8  13.8   201  45.5  39.1  78.2